sensor_id;sensor_type;location;lat;lon;timestamp;pressure;altitude;pressure_sealevel;temperature;humidity
81545;BME280;70990;50.618;7.346;2023-11-21T00:02:00;97554.50;;;7.75;97.10
81545;BME280;70990;50.618;7.346;2023-11-21T00:04:27;97559.25;;;7.74;96.52
81545;BME280;70990;50.618;7.346;2023-11-21T00:06:54;97562.81;;;7.71;96.58
81545;BME280;70990;50.618;7.346;2023-11-21T00:09:20;97569.56;;;7.63;96.77
81545;BME280;70990;50.618;7.346;2023-11-21T00:11:47;97550.25;;;7.33;98.29
81545;BME280;70990;50.618;7.346;2023-11-21T00:14:13;97559.94;;;7.48;97.76
81545;BME280;70990;50.618;7.346;2023-11-21T00:16:41;97562.88;;;7.64;97.15
81545;BME280;70990;50.618;7.346;2023-11-21T00:19:07;97567.25;;;7.61;96.85
81545;BME280;70990;50.618;7.346;2023-11-21T00:21:34;97555.81;;;7.63;97.04
81545;BME280;70990;50.618;7.346;2023-11-21T00:24:00;97570.28;;;7.70;97.08
81545;BME280;70990;50.618;7.346;2023-11-21T00:26:27;97563.19;;;7.73;96.82
81545;BME280;70990;50.618;7.346;2023-11-21T00:29:00;97568.69;;;7.73;96.74
81545;BME280;70990;50.618;7.346;2023-11-21T00:31:27;97579.63;;;7.77;96.34
81545;BME280;70990;50.618;7.346;2023-11-21T00:33:53;97578.94;;;7.69;96.61
81545;BME280;70990;50.618;7.346;2023-11-21T00:36:20;97578.19;;;7.65;97.15
81545;BME280;70990;50.618;7.346;2023-11-21T00:38:46;97589.97;;;7.65;96.85
81545;BME280;70990;50.618;7.346;2023-11-21T00:41:14;97594.63;;;7.72;96.73
81545;BME280;70990;50.618;7.346;2023-11-21T00:43:40;97576.69;;;7.60;96.64
81545;BME280;70990;50.618;7.346;2023-11-21T00:46:07;97578.25;;;7.61;97.08
81545;BME280;70990;50.618;7.346;2023-11-21T00:48:34;97583.78;;;7.58;97.06
81545;BME280;70990;50.618;7.346;2023-11-21T00:51:00;97595.16;;;7.56;97.61
81545;BME280;70990;50.618;7.346;2023-11-21T00:53:27;97582.25;;;7.53;97.47
81545;BME280;70990;50.618;7.346;2023-11-21T00:55:53;97587.63;;;7.64;96.81
81545;BME280;70990;50.618;7.346;2023-11-21T00:58:20;97587.28;;;7.62;96.90
81545;BME280;70990;50.618;7.346;2023-11-21T01:00:46;97584.53;;;7.62;97.11
81545;BME280;70990;50.618;7.346;2023-11-21T01:03:13;97598.28;;;7.62;97.34
81545;BME280;70990;50.618;7.346;2023-11-21T01:05:40;97612.78;;;7.62;97.03
81545;BME280;70990;50.618;7.346;2023-11-21T01:08:07;97601.44;;;7.57;97.57
81545;BME280;70990;50.618;7.346;2023-11-21T01:10:34;97606.53;;;7.62;97.49
81545;BME280;70990;50.618;7.346;2023-11-21T01:13:00;97605.03;;;7.54;98.18
81545;BME280;70990;50.618;7.346;2023-11-21T01:15:27;97610.88;;;7.56;97.66
81545;BME280;70990;50.618;7.346;2023-11-21T01:17:53;97619.81;;;7.67;97.15
81545;BME280;70990;50.618;7.346;2023-11-21T01:20:20;97622.38;;;7.44;97.46
81545;BME280;70990;50.618;7.346;2023-11-21T01:22:47;97625.97;;;7.37;98.67
81545;BME280;70990;50.618;7.346;2023-11-21T01:25:13;97618.50;;;7.38;98.55
81545;BME280;70990;50.618;7.346;2023-11-21T01:27:45;97614.63;;;7.32;98.45
81545;BME280;70990;50.618;7.346;2023-11-21T01:30:11;97625.06;;;7.51;98.63
81545;BME280;70990;50.618;7.346;2023-11-21T01:32:38;97630.63;;;7.47;98.32
81545;BME280;70990;50.618;7.346;2023-11-21T01:35:06;97633.41;;;7.40;98.62
81545;BME280;70990;50.618;7.346;2023-11-21T01:37:33;97634.22;;;7.41;98.13
81545;BME280;70990;50.618;7.346;2023-11-21T01:39:59;97614.75;;;7.21;98.78
81545;BME280;70990;50.618;7.346;2023-11-21T01:42:26;97633.38;;;7.44;98.54
81545;BME280;70990;50.618;7.346;2023-11-21T01:44:53;97625.97;;;7.41;98.12
81545;BME280;70990;50.618;7.346;2023-11-21T01:47:19;97629.44;;;7.45;98.42
81545;BME280;70990;50.618;7.346;2023-11-21T01:49:47;97636.16;;;7.40;98.22
81545;BME280;70990;50.618;7.346;2023-11-21T01:52:14;97642.00;;;7.46;98.04
81545;BME280;70990;50.618;7.346;2023-11-21T01:54:41;97640.81;;;7.47;98.58
81545;BME280;70990;50.618;7.346;2023-11-21T01:57:08;97640.38;;;7.52;98.43
81545;BME280;70990;50.618;7.346;2023-11-21T01:59:36;97638.75;;;7.58;97.79
81545;BME280;70990;50.618;7.346;2023-11-21T02:02:04;97647.06;;;7.51;97.88
81545;BME280;70990;50.618;7.346;2023-11-21T02:04:33;97649.81;;;7.51;97.86
81545;BME280;70990;50.618;7.346;2023-11-21T02:07:02;97636.06;;;7.51;97.91
81545;BME280;70990;50.618;7.346;2023-11-21T02:09:29;97634.88;;;7.52;98.28
81545;BME280;70990;50.618;7.346;2023-11-21T02:11:55;97643.53;;;7.50;97.43
81545;BME280;70990;50.618;7.346;2023-11-21T02:14:25;97650.25;;;7.46;97.84
81545;BME280;70990;50.618;7.346;2023-11-21T02:16:52;97649.88;;;7.44;98.25
81545;BME280;70990;50.618;7.346;2023-11-21T02:19:19;97653.44;;;7.41;98.12
81545;BME280;70990;50.618;7.346;2023-11-21T02:21:46;97661.94;;;7.57;98.03
81545;BME280;70990;50.618;7.346;2023-11-21T02:24:14;97661.97;;;7.50;97.99
81545;BME280;70990;50.618;7.346;2023-11-21T02:26:40;97659.72;;;7.41;97.88
81545;BME280;70990;50.618;7.346;2023-11-21T02:29:07;97666.00;;;7.38;97.91
81545;BME280;70990;50.618;7.346;2023-11-21T02:31:34;97666.00;;;7.42;97.80
81545;BME280;70990;50.618;7.346;2023-11-21T02:34:01;97671.22;;;7.29;98.00
81545;BME280;70990;50.618;7.346;2023-11-21T02:36:27;97672.78;;;7.26;98.42
81545;BME280;70990;50.618;7.346;2023-11-21T02:38:54;97668.91;;;7.24;98.39
81545;BME280;70990;50.618;7.346;2023-11-21T02:41:20;97675.53;;;7.30;98.41
81545;BME280;70990;50.618;7.346;2023-11-21T02:43:47;97672.81;;;7.23;98.39
81545;BME280;70990;50.618;7.346;2023-11-21T02:46:14;97672.06;;;7.19;98.49
81545;BME280;70990;50.618;7.346;2023-11-21T02:48:41;97668.94;;;7.17;98.63
81545;BME280;70990;50.618;7.346;2023-11-21T02:51:07;97667.72;;;7.21;98.75
81545;BME280;70990;50.618;7.346;2023-11-21T02:53:34;97675.97;;;7.21;98.99
81545;BME280;70990;50.618;7.346;2023-11-21T02:56:01;97683.03;;;7.19;98.95
81545;BME280;70990;50.618;7.346;2023-11-21T02:58:29;97683.88;;;7.16;99.35
81545;BME280;70990;50.618;7.346;2023-11-21T03:00:56;97676.06;;;7.11;99.35
81545;BME280;70990;50.618;7.346;2023-11-21T03:03:23;97682.22;;;7.25;99.06
81545;BME280;70990;50.618;7.346;2023-11-21T03:05:50;97685.00;;;7.22;98.99
81545;BME280;70990;50.618;7.346;2023-11-21T03:08:16;97683.72;;;7.34;98.70
81545;BME280;70990;50.618;7.346;2023-11-21T03:10:43;97685.81;;;7.15;99.28
81545;BME280;70990;50.618;7.346;2023-11-21T03:13:09;97688.53;;;7.22;99.11
81545;BME280;70990;50.618;7.346;2023-11-21T03:15:36;97687.28;;;7.31;98.49
81545;BME280;70990;50.618;7.346;2023-11-21T03:18:03;97679.16;;;7.16;98.54
81545;BME280;70990;50.618;7.346;2023-11-21T03:20:29;97680.66;;;7.24;98.69
81545;BME280;70990;50.618;7.346;2023-11-21T03:22:56;97692.81;;;7.27;98.26
81545;BME280;70990;50.618;7.346;2023-11-21T03:25:23;97696.38;;;7.20;98.45
81545;BME280;70990;50.618;7.346;2023-11-21T03:27:49;97708.94;;;7.21;98.84
81545;BME280;70990;50.618;7.346;2023-11-21T03:30:16;97706.63;;;7.16;98.86
81545;BME280;70990;50.618;7.346;2023-11-21T03:32:42;97706.97;;;7.18;99.00
81545;BME280;70990;50.618;7.346;2023-11-21T03:35:09;97715.19;;;7.25;98.78
81545;BME280;70990;50.618;7.346;2023-11-21T03:37:36;97717.97;;;7.22;98.42
81545;BME280;70990;50.618;7.346;2023-11-21T03:40:03;97730.88;;;7.25;98.48
81545;BME280;70990;50.618;7.346;2023-11-21T03:42:31;97727.78;;;7.19;98.53
81545;BME280;70990;50.618;7.346;2023-11-21T03:44:58;97723.16;;;7.09;99.19
81545;BME280;70990;50.618;7.346;2023-11-21T03:47:26;97720.44;;;7.06;99.12
81545;BME280;70990;50.618;7.346;2023-11-21T03:49:53;97725.47;;;7.14;98.71
81545;BME280;70990;50.618;7.346;2023-11-21T03:52:19;97724.78;;;6.96;99.22
81545;BME280;70990;50.618;7.346;2023-11-21T03:54:46;97729.53;;;6.88;99.67
81545;BME280;70990;50.618;7.346;2023-11-21T03:57:12;97726.38;;;6.97;99.69
81545;BME280;70990;50.618;7.346;2023-11-21T03:59:43;97735.75;;;7.03;99.39
81545;BME280;70990;50.618;7.346;2023-11-21T04:02:09;97744.78;;;7.04;99.42
81545;BME280;70990;50.618;7.346;2023-11-21T04:04:36;97738.44;;;7.10;99.23
81545;BME280;70990;50.618;7.346;2023-11-21T04:07:05;97747.13;;;7.05;98.90
81545;BME280;70990;50.618;7.346;2023-11-21T04:09:32;97752.19;;;7.07;99.32
81545;BME280;70990;50.618;7.346;2023-11-21T04:11:58;97752.19;;;7.07;98.94
81545;BME280;70990;50.618;7.346;2023-11-21T04:14:25;97748.66;;;7.06;99.13
81545;BME280;70990;50.618;7.346;2023-11-21T04:16:51;97758.47;;;7.11;98.38
81545;BME280;70990;50.618;7.346;2023-11-21T04:19:18;97763.56;;;7.09;98.63
81545;BME280;70990;50.618;7.346;2023-11-21T04:21:45;97759.22;;;7.15;97.93
81545;BME280;70990;50.618;7.346;2023-11-21T04:24:12;97760.78;;;7.12;98.08
81545;BME280;70990;50.618;7.346;2023-11-21T04:26:38;97762.00;;;7.08;97.90
81545;BME280;70990;50.618;7.346;2023-11-21T04:29:05;97756.91;;;7.06;98.07
81545;BME280;70990;50.618;7.346;2023-11-21T04:31:31;97773.81;;;7.01;98.18
81545;BME280;70990;50.618;7.346;2023-11-21T04:33:58;97765.66;;;6.83;98.43
81545;BME280;70990;50.618;7.346;2023-11-21T04:36:25;97782.13;;;6.87;98.57
81545;BME280;70990;50.618;7.346;2023-11-21T04:38:51;97786.41;;;6.88;98.56
81545;BME280;70990;50.618;7.346;2023-11-21T04:41:18;97788.81;;;6.79;98.30
81545;BME280;70990;50.618;7.346;2023-11-21T04:43:44;97791.53;;;6.82;98.38
81545;BME280;70990;50.618;7.346;2023-11-21T04:46:11;97779.81;;;6.78;97.64
81545;BME280;70990;50.618;7.346;2023-11-21T04:48:38;97782.53;;;6.85;97.66
81545;BME280;70990;50.618;7.346;2023-11-21T04:51:05;97791.53;;;6.86;97.46
81545;BME280;70990;50.618;7.346;2023-11-21T04:53:31;97787.22;;;6.85;98.22
81545;BME280;70990;50.618;7.346;2023-11-21T04:55:58;97790.75;;;6.89;98.13
81545;BME280;70990;50.618;7.346;2023-11-21T04:58:25;97799.41;;;6.80;98.33
81545;BME280;70990;50.618;7.346;2023-11-21T05:00:51;97796.28;;;6.78;98.53
81545;BME280;70990;50.618;7.346;2023-11-21T05:03:18;97803.72;;;6.81;98.77
81545;BME280;70990;50.618;7.346;2023-11-21T05:05:45;97770.41;;;6.69;98.60
81545;BME280;70990;50.618;7.346;2023-11-21T05:08:11;97795.09;;;6.79;98.47
81545;BME280;70990;50.618;7.346;2023-11-21T05:10:38;97800.97;;;6.85;98.52
81545;BME280;70990;50.618;7.346;2023-11-21T05:13:04;97801.75;;;6.82;98.66
81545;BME280;70990;50.618;7.346;2023-11-21T05:15:32;97799.41;;;6.77;99.39
81545;BME280;70990;50.618;7.346;2023-11-21T05:17:58;97792.34;;;6.76;99.02
81545;BME280;70990;50.618;7.346;2023-11-21T05:20:26;97807.59;;;6.87;99.11
81545;BME280;70990;50.618;7.346;2023-11-21T05:22:52;97808.38;;;6.88;99.59
81545;BME280;70990;50.618;7.346;2023-11-21T05:25:19;97816.63;;;6.88;99.41
81545;BME280;70990;50.618;7.346;2023-11-21T05:27:47;97813.88;;;6.92;99.48
81545;BME280;70990;50.618;7.346;2023-11-21T05:30:14;97813.88;;;6.88;99.27
81545;BME280;70990;50.618;7.346;2023-11-21T05:32:41;97815.09;;;6.87;99.42
81545;BME280;70990;50.618;7.346;2023-11-21T05:35:08;97822.84;;;7.03;99.00
81545;BME280;70990;50.618;7.346;2023-11-21T05:37:35;97830.69;;;7.04;99.20
81545;BME280;70990;50.618;7.346;2023-11-21T05:40:01;97827.59;;;6.95;99.26
81545;BME280;70990;50.618;7.346;2023-11-21T05:42:28;97833.06;;;7.02;99.39
81545;BME280;70990;50.618;7.346;2023-11-21T05:44:55;97840.13;;;7.03;99.29
81545;BME280;70990;50.618;7.346;2023-11-21T05:47:21;97844.84;;;6.99;99.61
81545;BME280;70990;50.618;7.346;2023-11-21T05:49:48;97841.69;;;7.04;99.49
81545;BME280;70990;50.618;7.346;2023-11-21T05:52:16;97838.22;;;6.93;99.39
81545;BME280;70990;50.618;7.346;2023-11-21T05:54:42;97840.16;;;6.93;99.62
81545;BME280;70990;50.618;7.346;2023-11-21T05:57:09;97843.66;;;7.00;99.26
81545;BME280;70990;50.618;7.346;2023-11-21T05:59:35;97846.78;;;7.02;99.14
81545;BME280;70990;50.618;7.346;2023-11-21T06:02:02;97841.69;;;7.01;98.97
81545;BME280;70990;50.618;7.346;2023-11-21T06:04:29;97849.53;;;7.02;99.26
81545;BME280;70990;50.618;7.346;2023-11-21T06:06:56;97852.66;;;7.08;98.88
81545;BME280;70990;50.618;7.346;2023-11-21T06:09:23;97848.75;;;7.02;99.19
81545;BME280;70990;50.618;7.346;2023-11-21T06:11:50;97856.56;;;7.07;98.22
81545;BME280;70990;50.618;7.346;2023-11-21T06:14:16;97858.19;;;6.97;98.49
81545;BME280;70990;50.618;7.346;2023-11-21T06:16:43;97862.88;;;7.04;98.06
81545;BME280;70990;50.618;7.346;2023-11-21T06:19:09;97869.22;;;6.86;98.38
81545;BME280;70990;50.618;7.346;2023-11-21T06:21:36;97882.16;;;6.93;97.85
81545;BME280;70990;50.618;7.346;2023-11-21T06:24:03;97882.13;;;6.97;97.79
81545;BME280;70990;50.618;7.346;2023-11-21T06:26:29;97892.34;;;6.89;98.01
81545;BME280;70990;50.618;7.346;2023-11-21T06:28:56;97893.16;;;6.86;98.56
81545;BME280;70990;50.618;7.346;2023-11-21T06:31:22;97892.75;;;6.91;98.60
81545;BME280;70990;50.618;7.346;2023-11-21T06:33:49;97886.06;;;6.99;97.85
81545;BME280;70990;50.618;7.346;2023-11-21T06:36:15;97893.91;;;6.97;97.71
81545;BME280;70990;50.618;7.346;2023-11-21T06:38:44;97890.41;;;6.86;98.04
81545;BME280;70990;50.618;7.346;2023-11-21T06:41:11;97891.97;;;6.87;98.17
81545;BME280;70990;50.618;7.346;2023-11-21T06:43:38;97894.25;;;7.06;97.98
81545;BME280;70990;50.618;7.346;2023-11-21T06:46:05;97911.53;;;7.03;97.73
81545;BME280;70990;50.618;7.346;2023-11-21T06:48:31;97906.84;;;6.97;97.91
81545;BME280;70990;50.618;7.346;2023-11-21T06:50:58;97912.31;;;7.04;97.23
81545;BME280;70990;50.618;7.346;2023-11-21T06:53:24;97914.69;;;6.98;97.71
81545;BME280;70990;50.618;7.346;2023-11-21T06:55:51;97917.03;;;6.96;97.94
81545;BME280;70990;50.618;7.346;2023-11-21T06:58:17;97916.66;;;6.94;97.51
81545;BME280;70990;50.618;7.346;2023-11-21T07:00:44;97924.13;;;6.97;97.73
81545;BME280;70990;50.618;7.346;2023-11-21T07:03:10;97925.69;;;6.98;97.92
81545;BME280;70990;50.618;7.346;2023-11-21T07:05:37;97937.03;;;7.07;97.42
81545;BME280;70990;50.618;7.346;2023-11-21T07:08:04;97922.53;;;6.96;97.51
81545;BME280;70990;50.618;7.346;2023-11-21T07:10:30;97937.47;;;6.88;97.87
81545;BME280;70990;50.618;7.346;2023-11-21T07:12:57;97934.66;;;7.09;97.41
81545;BME280;70990;50.618;7.346;2023-11-21T07:15:24;97944.53;;;6.85;98.23
81545;BME280;70990;50.618;7.346;2023-11-21T07:17:50;97949.59;;;7.01;97.67
81545;BME280;70990;50.618;7.346;2023-11-21T07:20:17;97965.72;;;6.99;97.06
81545;BME280;70990;50.618;7.346;2023-11-21T07:22:44;97973.56;;;6.97;97.57
81545;BME280;70990;50.618;7.346;2023-11-21T07:25:11;97974.69;;;7.14;97.11
81545;BME280;70990;50.618;7.346;2023-11-21T07:27:38;97973.53;;;7.08;97.54
81545;BME280;70990;50.618;7.346;2023-11-21T07:30:05;97976.28;;;6.97;97.68
81545;BME280;70990;50.618;7.346;2023-11-21T07:32:31;97979.81;;;7.05;97.66
81545;BME280;70990;50.618;7.346;2023-11-21T07:34:58;97992.38;;;7.09;97.29
81545;BME280;70990;50.618;7.346;2023-11-21T07:37:25;97990.00;;;7.11;97.00
81545;BME280;70990;50.618;7.346;2023-11-21T07:39:52;97997.88;;;6.92;97.77
81545;BME280;70990;50.618;7.346;2023-11-21T07:42:18;97997.09;;;6.91;98.20
81545;BME280;70990;50.618;7.346;2023-11-21T07:44:46;98006.13;;;6.99;97.94
81545;BME280;70990;50.618;7.346;2023-11-21T07:47:15;98006.91;;;6.85;97.63
81545;BME280;70990;50.618;7.346;2023-11-21T07:49:41;98017.09;;;6.95;98.65
81545;BME280;70990;50.618;7.346;2023-11-21T07:52:08;98022.19;;;7.11;97.89
81545;BME280;70990;50.618;7.346;2023-11-21T07:54:34;98020.22;;;7.11;97.56
81545;BME280;70990;50.618;7.346;2023-11-21T07:57:01;98031.97;;;7.19;97.21
81545;BME280;70990;50.618;7.346;2023-11-21T07:59:28;98027.28;;;7.12;97.14
81545;BME280;70990;50.618;7.346;2023-11-21T08:01:55;98032.38;;;7.24;97.44
81545;BME280;70990;50.618;7.346;2023-11-21T08:04:22;98037.91;;;7.03;97.75
81545;BME280;70990;50.618;7.346;2023-11-21T08:06:48;98037.09;;;7.13;97.97
81545;BME280;70990;50.618;7.346;2023-11-21T08:09:15;98047.28;;;7.20;97.49
81545;BME280;70990;50.618;7.346;2023-11-21T08:11:41;98033.94;;;7.25;97.10
81545;BME280;70990;50.618;7.346;2023-11-21T08:14:08;98040.59;;;7.32;96.38
81545;BME280;70990;50.618;7.346;2023-11-21T08:16:35;98001.78;;;7.08;96.60
81545;BME280;70990;50.618;7.346;2023-11-21T08:19:01;98011.94;;;7.25;95.77
81545;BME280;70990;50.618;7.346;2023-11-21T08:21:28;98037.88;;;7.21;97.28
81545;BME280;70990;50.618;7.346;2023-11-21T08:23:57;98038.63;;;7.39;96.85
81545;BME280;70990;50.618;7.346;2023-11-21T08:26:24;98036.28;;;7.34;96.98
81545;BME280;70990;50.618;7.346;2023-11-21T08:28:50;98045.34;;;7.17;97.02
81545;BME280;70990;50.618;7.346;2023-11-21T08:31:17;98048.06;;;7.35;96.82
81545;BME280;70990;50.618;7.346;2023-11-21T08:33:43;98049.97;;;7.52;96.57
81545;BME280;70990;50.618;7.346;2023-11-21T08:36:10;98055.41;;;7.69;97.19
81545;BME280;70990;50.618;7.346;2023-11-21T08:38:37;98044.03;;;7.71;97.40
81545;BME280;70990;50.618;7.346;2023-11-21T08:41:07;98050.25;;;7.82;96.51
81545;BME280;70990;50.618;7.346;2023-11-21T08:43:36;98054.97;;;7.92;95.85
81545;BME280;70990;50.618;7.346;2023-11-21T08:46:03;98058.94;;;7.81;95.51
81545;BME280;70990;50.618;7.346;2023-11-21T08:48:30;98058.91;;;7.84;95.80
81545;BME280;70990;50.618;7.346;2023-11-21T08:50:57;98060.47;;;7.85;96.25
81545;BME280;70990;50.618;7.346;2023-11-21T08:53:23;98059.66;;;7.95;96.50
81545;BME280;70990;50.618;7.346;2023-11-21T08:55:50;98056.91;;;7.95;95.35
81545;BME280;70990;50.618;7.346;2023-11-21T08:58:16;98067.50;;;7.93;95.07
81545;BME280;70990;50.618;7.346;2023-11-21T09:00:43;98067.50;;;7.93;95.10
81545;BME280;70990;50.618;7.346;2023-11-21T09:03:10;98077.44;;;7.59;95.07
81545;BME280;70990;50.618;7.346;2023-11-21T09:05:39;98082.94;;;7.73;95.40
81545;BME280;70990;50.618;7.346;2023-11-21T09:08:06;98080.97;;;7.66;94.74
81545;BME280;70990;50.618;7.346;2023-11-21T09:10:33;98078.22;;;7.74;94.92
81545;BME280;70990;50.618;7.346;2023-11-21T09:13:00;98084.88;;;7.69;94.47
81545;BME280;70990;50.618;7.346;2023-11-21T09:15:27;98093.53;;;7.71;95.36
81545;BME280;70990;50.618;7.346;2023-11-21T09:17:54;98097.47;;;7.66;95.07
81545;BME280;70990;50.618;7.346;2023-11-21T09:20:23;98112.34;;;7.90;93.17
81545;BME280;70990;50.618;7.346;2023-11-21T09:22:49;98112.28;;;8.04;93.60
81545;BME280;70990;50.618;7.346;2023-11-21T09:25:16;98106.03;;;7.93;93.71
81545;BME280;70990;50.618;7.346;2023-11-21T09:27:43;98115.47;;;7.99;94.60
81545;BME280;70990;50.618;7.346;2023-11-21T09:30:10;98124.50;;;7.96;94.84
81545;BME280;70990;50.618;7.346;2023-11-21T09:32:40;98128.81;;;8.01;94.85
81545;BME280;70990;50.618;7.346;2023-11-21T09:35:08;98120.59;;;7.90;94.37
81545;BME280;70990;50.618;7.346;2023-11-21T09:37:35;98142.19;;;7.88;95.25
81545;BME280;70990;50.618;7.346;2023-11-21T09:40:02;98139.81;;;7.94;95.35
81545;BME280;70990;50.618;7.346;2023-11-21T09:42:35;98137.47;;;7.96;95.24
81545;BME280;70990;50.618;7.346;2023-11-21T09:45:15;98142.56;;;8.04;94.63
81545;BME280;70990;50.618;7.346;2023-11-21T09:47:46;98135.91;;;7.98;95.10
81545;BME280;70990;50.618;7.346;2023-11-21T09:50:17;98143.03;;;7.57;94.26
81545;BME280;70990;50.618;7.346;2023-11-21T09:53:11;98132.38;;;7.87;94.15
81545;BME280;70990;50.618;7.346;2023-11-21T09:55:44;98137.50;;;7.92;94.36
81545;BME280;70990;50.618;7.346;2023-11-21T09:58:12;98141.41;;;7.91;95.52
81545;BME280;70990;50.618;7.346;2023-11-21T10:00:42;98137.47;;;7.99;94.65
81545;BME280;70990;50.618;7.346;2023-11-21T10:03:09;98143.78;;;7.89;94.59
81545;BME280;70990;50.618;7.346;2023-11-21T10:05:36;98143.00;;;7.92;94.64
81545;BME280;70990;50.618;7.346;2023-11-21T10:08:07;98148.88;;;7.91;93.55
81545;BME280;70990;50.618;7.346;2023-11-21T10:10:35;98150.88;;;7.87;94.47
81545;BME280;70990;50.618;7.346;2023-11-21T10:13:04;98152.03;;;7.82;94.30
81545;BME280;70990;50.618;7.346;2023-11-21T10:15:33;98154.78;;;7.93;95.08
81545;BME280;70990;50.618;7.346;2023-11-21T10:18:02;98145.38;;;7.69;95.05
81545;BME280;70990;50.618;7.346;2023-11-21T10:20:30;98159.53;;;7.78;95.37
81545;BME280;70990;50.618;7.346;2023-11-21T10:22:57;98147.72;;;7.81;94.50
81545;BME280;70990;50.618;7.346;2023-11-21T10:25:23;98153.22;;;7.81;94.83
81545;BME280;70990;50.618;7.346;2023-11-21T10:27:57;98161.44;;;7.95;95.45
81545;BME280;70990;50.618;7.346;2023-11-21T10:30:28;98160.25;;;7.96;95.31
81545;BME280;70990;50.618;7.346;2023-11-21T10:32:59;98158.69;;;7.95;94.81
81545;BME280;70990;50.618;7.346;2023-11-21T10:35:38;98150.41;;;8.02;94.89
81545;BME280;70990;50.618;7.346;2023-11-21T10:38:05;98146.50;;;8.03;94.55
81545;BME280;70990;50.618;7.346;2023-11-21T10:40:32;98164.97;;;8.03;94.85
81545;BME280;70990;50.618;7.346;2023-11-21T10:43:09;98164.50;;;8.26;94.79
81545;BME280;70990;50.618;7.346;2023-11-21T10:45:40;98164.91;;;8.24;93.24
81545;BME280;70990;50.618;7.346;2023-11-21T10:48:09;98166.47;;;8.22;94.20
81545;BME280;70990;50.618;7.346;2023-11-21T10:50:37;98169.66;;;8.09;94.59
81545;BME280;70990;50.618;7.346;2023-11-21T10:53:04;98171.56;;;8.27;94.03
81545;BME280;70990;50.618;7.346;2023-11-21T10:55:32;98166.84;;;8.34;94.54
81545;BME280;70990;50.618;7.346;2023-11-21T10:58:01;98166.44;;;8.39;93.87
81545;BME280;70990;50.618;7.346;2023-11-21T11:00:29;98160.16;;;8.32;93.01
81545;BME280;70990;50.618;7.346;2023-11-21T11:02:56;98159.34;;;8.42;95.22
81545;BME280;70990;50.618;7.346;2023-11-21T11:05:23;98167.16;;;8.50;94.44
81545;BME280;70990;50.618;7.346;2023-11-21T11:07:56;98164.88;;;8.35;92.96
81545;BME280;70990;50.618;7.346;2023-11-21T11:10:24;98164.88;;;8.38;93.96
81545;BME280;70990;50.618;7.346;2023-11-21T11:12:51;98171.09;;;8.53;93.61
81545;BME280;70990;50.618;7.346;2023-11-21T11:15:19;98170.25;;;8.67;93.80
81545;BME280;70990;50.618;7.346;2023-11-21T11:17:54;98166.34;;;8.61;92.67
81545;BME280;70990;50.618;7.346;2023-11-21T11:20:34;98163.53;;;8.71;93.22
81545;BME280;70990;50.618;7.346;2023-11-21T11:23:11;98177.38;;;8.61;91.73
81545;BME280;70990;50.618;7.346;2023-11-21T11:26:17;98172.19;;;8.70;92.57
81545;BME280;70990;50.618;7.346;2023-11-21T11:34:30;98172.16;;;8.80;90.87
81545;BME280;70990;50.618;7.346;2023-11-21T11:37:00;98181.19;;;8.84;91.41
81545;BME280;70990;50.618;7.346;2023-11-21T11:39:38;98175.75;;;8.63;91.78
81545;BME280;70990;50.618;7.346;2023-11-21T11:42:08;98180.84;;;8.68;91.42
81545;BME280;70990;50.618;7.346;2023-11-21T11:47:13;98184.81;;;8.64;92.31
81545;BME280;70990;50.618;7.346;2023-11-21T11:50:04;98195.13;;;8.49;92.65
81545;BME280;70990;50.618;7.346;2023-11-21T11:52:41;98193.09;;;8.57;92.77
81545;BME280;70990;50.618;7.346;2023-11-21T11:55:12;98193.09;;;8.60;92.52
81545;BME280;70990;50.618;7.346;2023-11-21T11:57:41;98182.13;;;8.49;91.90
81545;BME280;70990;50.618;7.346;2023-11-21T12:00:08;98190.38;;;8.49;91.97
81545;BME280;70990;50.618;7.346;2023-11-21T12:02:36;98182.47;;;8.59;92.60
81545;BME280;70990;50.618;7.346;2023-11-21T12:05:11;98197.50;;;8.40;91.78
81545;BME280;70990;50.618;7.346;2023-11-21T12:07:44;98187.69;;;8.32;92.64
81545;BME280;70990;50.618;7.346;2023-11-21T12:10:16;98187.25;;;8.44;92.38
81545;BME280;70990;50.618;7.346;2023-11-21T12:12:45;98186.06;;;8.52;91.73
81545;BME280;70990;50.618;7.346;2023-11-21T12:15:12;98193.97;;;8.43;91.54
81545;BME280;70990;50.618;7.346;2023-11-21T12:17:41;98193.56;;;8.44;92.89
81545;BME280;70990;50.618;7.346;2023-11-21T12:20:07;98197.81;;;8.56;92.62
81545;BME280;70990;50.618;7.346;2023-11-21T12:22:35;98193.06;;;8.64;92.68
81545;BME280;70990;50.618;7.346;2023-11-21T12:25:01;98190.78;;;8.52;92.02
81545;BME280;70990;50.618;7.346;2023-11-21T12:27:29;98205.31;;;8.52;91.95
81545;BME280;70990;50.618;7.346;2023-11-21T12:29:55;98202.16;;;8.57;91.87
81545;BME280;70990;50.618;7.346;2023-11-21T12:32:22;98206.50;;;8.51;92.30
81545;BME280;70990;50.618;7.346;2023-11-21T12:34:49;98201.00;;;8.55;92.51
81545;BME280;70990;50.618;7.346;2023-11-21T12:37:16;98208.84;;;8.56;92.84
81545;BME280;70990;50.618;7.346;2023-11-21T12:39:43;98204.16;;;8.53;92.94
81545;BME280;70990;50.618;7.346;2023-11-21T12:42:09;98212.38;;;8.60;93.08
81545;BME280;70990;50.618;7.346;2023-11-21T12:44:36;98211.25;;;8.47;92.34
81545;BME280;70990;50.618;7.346;2023-11-21T12:47:03;98219.50;;;8.47;92.87
81545;BME280;70990;50.618;7.346;2023-11-21T12:49:30;98217.94;;;8.46;92.81
81545;BME280;70990;50.618;7.346;2023-11-21T12:51:57;98232.09;;;8.48;93.45
81545;BME280;70990;50.618;7.346;2023-11-21T12:54:24;98229.38;;;8.41;93.44
81545;BME280;70990;50.618;7.346;2023-11-21T12:56:51;98222.31;;;8.36;93.20
81545;BME280;70990;50.618;7.346;2023-11-21T12:59:17;98218.41;;;8.30;92.95
81545;BME280;70990;50.618;7.346;2023-11-21T13:01:47;98226.63;;;8.34;93.37
81545;BME280;70990;50.618;7.346;2023-11-21T13:04:14;98214.44;;;8.42;92.61
81545;BME280;70990;50.618;7.346;2023-11-21T13:06:40;98216.38;;;8.38;93.34
81545;BME280;70990;50.618;7.346;2023-11-21T13:09:08;98222.66;;;8.45;91.95
81545;BME280;70990;50.618;7.346;2023-11-21T13:11:35;98213.25;;;8.43;92.79
81545;BME280;70990;50.618;7.346;2023-11-21T13:14:02;98225.38;;;8.56;92.98
81545;BME280;70990;50.618;7.346;2023-11-21T13:16:29;98219.09;;;8.52;92.11
81545;BME280;70990;50.618;7.346;2023-11-21T13:18:55;98214.44;;;8.42;92.65
81545;BME280;70990;50.618;7.346;2023-11-21T13:21:22;98237.56;;;8.59;92.67